sensor_id;sensor_type;location;lat;lon;timestamp;P1;durP1;ratioP1;P2;durP2;ratioP2
25972;SDS011;13765;51.166;4.466;2022-12-26T00:02:01;11.90;;;4.20;;
25972;SDS011;13765;51.166;4.466;2022-12-26T00:04:28;12.05;;;3.63;;
25972;SDS011;13765;51.166;4.466;2022-12-26T00:06:54;8.73;;;3.72;;
25972;SDS011;13765;51.166;4.466;2022-12-26T00:09:20;8.05;;;2.92;;
25972;SDS011;13765;51.166;4.466;2022-12-26T00:11:46;6.22;;;2.47;;
25972;SDS011;13765;51.166;4.466;2022-12-26T00:14:13;6.43;;;2.88;;
25972;SDS011;13765;51.166;4.466;2022-12-26T00:16:43;12.88;;;3.55;;
25972;SDS011;13765;51.166;4.466;2022-12-26T00:19:12;7.97;;;2.90;;
25972;SDS011;13765;51.166;4.466;2022-12-26T00:21:39;7.07;;;2.70;;
25972;SDS011;13765;51.166;4.466;2022-12-26T00:24:05;13.73;;;4.57;;
25972;SDS011;13765;51.166;4.466;2022-12-26T00:26:32;13.35;;;4.55;;
25972;SDS011;13765;51.166;4.466;2022-12-26T00:28:59;14.20;;;4.80;;
25972;SDS011;13765;51.166;4.466;2022-12-26T00:31:27;13.60;;;4.38;;
25972;SDS011;13765;51.166;4.466;2022-12-26T00:33:55;15.30;;;4.28;;
25972;SDS011;13765;51.166;4.466;2022-12-26T00:36:24;10.85;;;4.28;;
25972;SDS011;13765;51.166;4.466;2022-12-26T00:38:53;12.50;;;4.40;;
25972;SDS011;13765;51.166;4.466;2022-12-26T00:41:19;13.00;;;3.75;;
25972;SDS011;13765;51.166;4.466;2022-12-26T00:43:45;15.32;;;5.10;;
25972;SDS011;13765;51.166;4.466;2022-12-26T00:46:11;12.73;;;4.75;;
25972;SDS011;13765;51.166;4.466;2022-12-26T00:48:38;14.45;;;4.43;;
25972;SDS011;13765;51.166;4.466;2022-12-26T00:51:03;16.08;;;5.97;;
25972;SDS011;13765;51.166;4.466;2022-12-26T00:53:30;14.10;;;4.50;;
25972;SDS011;13765;51.166;4.466;2022-12-26T00:55:59;19.13;;;6.10;;
25972;SDS011;13765;51.166;4.466;2022-12-26T00:58:25;18.52;;;5.95;;
25972;SDS011;13765;51.166;4.466;2022-12-26T01:00:53;12.57;;;4.60;;
25972;SDS011;13765;51.166;4.466;2022-12-26T01:03:20;12.30;;;4.05;;
25972;SDS011;13765;51.166;4.466;2022-12-26T01:05:49;17.70;;;5.90;;
25972;SDS011;13765;51.166;4.466;2022-12-26T01:08:16;16.10;;;5.15;;
25972;SDS011;13765;51.166;4.466;2022-12-26T01:10:45;11.55;;;4.28;;
25972;SDS011;13765;51.166;4.466;2022-12-26T01:13:12;13.43;;;5.30;;
25972;SDS011;13765;51.166;4.466;2022-12-26T01:15:45;15.60;;;5.10;;
25972;SDS011;13765;51.166;4.466;2022-12-26T01:18:18;14.00;;;5.15;;
25972;SDS011;13765;51.166;4.466;2022-12-26T01:20:47;15.85;;;5.47;;
25972;SDS011;13765;51.166;4.466;2022-12-26T01:23:13;13.57;;;4.72;;
25972;SDS011;13765;51.166;4.466;2022-12-26T01:25:43;12.20;;;4.63;;
25972;SDS011;13765;51.166;4.466;2022-12-26T01:28:08;15.75;;;5.00;;
25972;SDS011;13765;51.166;4.466;2022-12-26T01:30:35;15.32;;;5.32;;
25972;SDS011;13765;51.166;4.466;2022-12-26T01:33:01;14.00;;;5.30;;
25972;SDS011;13765;51.166;4.466;2022-12-26T01:35:29;15.70;;;5.10;;
25972;SDS011;13765;51.166;4.466;2022-12-26T01:37:55;13.43;;;4.80;;
25972;SDS011;13765;51.166;4.466;2022-12-26T01:40:23;12.18;;;4.07;;
25972;SDS011;13765;51.166;4.466;2022-12-26T01:42:52;12.32;;;4.00;;
25972;SDS011;13765;51.166;4.466;2022-12-26T01:53:13;15.77;;;4.68;;
25972;SDS011;13765;51.166;4.466;2022-12-26T01:55:46;12.65;;;4.25;;
25972;SDS011;13765;51.166;4.466;2022-12-26T01:58:19;11.48;;;4.05;;
25972;SDS011;13765;51.166;4.466;2022-12-26T02:00:49;12.40;;;4.10;;
25972;SDS011;13765;51.166;4.466;2022-12-26T02:03:16;13.20;;;4.43;;
25972;SDS011;13765;51.166;4.466;2022-12-26T02:06:00;12.88;;;4.15;;
25972;SDS011;13765;51.166;4.466;2022-12-26T02:08:30;9.90;;;3.70;;
25972;SDS011;13765;51.166;4.466;2022-12-26T02:13:37;11.55;;;4.28;;
25972;SDS011;13765;51.166;4.466;2022-12-26T02:16:03;11.60;;;3.78;;
25972;SDS011;13765;51.166;4.466;2022-12-26T02:18:31;12.95;;;4.00;;
25972;SDS011;13765;51.166;4.466;2022-12-26T02:31:58;14.18;;;4.57;;
25972;SDS011;13765;51.166;4.466;2022-12-26T02:37:31;7.90;;;3.05;;
25972;SDS011;13765;51.166;4.466;2022-12-26T02:40:30;10.77;;;3.60;;
25972;SDS011;13765;51.166;4.466;2022-12-26T02:43:21;7.82;;;3.22;;
25972;SDS011;13765;51.166;4.466;2022-12-26T02:46:01;10.65;;;3.35;;
25972;SDS011;13765;51.166;4.466;2022-12-26T02:51:40;8.63;;;3.40;;
25972;SDS011;13765;51.166;4.466;2022-12-26T02:57:39;8.20;;;2.40;;
25972;SDS011;13765;51.166;4.466;2022-12-26T03:03:17;7.70;;;2.83;;
25972;SDS011;13765;51.166;4.466;2022-12-26T03:06:14;6.70;;;2.90;;
25972;SDS011;13765;51.166;4.466;2022-12-26T03:09:37;10.07;;;3.42;;
25972;SDS011;13765;51.166;4.466;2022-12-26T03:15:00;7.95;;;3.80;;
25972;SDS011;13765;51.166;4.466;2022-12-26T03:20:01;8.90;;;2.95;;
25972;SDS011;13765;51.166;4.466;2022-12-26T03:25:05;10.73;;;2.80;;
25972;SDS011;13765;51.166;4.466;2022-12-26T03:27:53;9.23;;;3.45;;
25972;SDS011;13765;51.166;4.466;2022-12-26T03:30:19;10.30;;;3.70;;
25972;SDS011;13765;51.166;4.466;2022-12-26T03:33:04;11.32;;;3.75;;
25972;SDS011;13765;51.166;4.466;2022-12-26T03:35:49;8.93;;;3.20;;
25972;SDS011;13765;51.166;4.466;2022-12-26T03:38:18;10.13;;;3.45;;
25972;SDS011;13765;51.166;4.466;2022-12-26T03:40:52;10.68;;;3.60;;
25972;SDS011;13765;51.166;4.466;2022-12-26T03:44:01;11.82;;;3.42;;
25972;SDS011;13765;51.166;4.466;2022-12-26T03:46:57;14.15;;;4.90;;
25972;SDS011;13765;51.166;4.466;2022-12-26T03:49:54;12.32;;;4.10;;
25972;SDS011;13765;51.166;4.466;2022-12-26T03:58:38;11.52;;;4.28;;
25972;SDS011;13765;51.166;4.466;2022-12-26T04:01:34;11.93;;;3.25;;
25972;SDS011;13765;51.166;4.466;2022-12-26T04:04:22;13.80;;;4.18;;
25972;SDS011;13765;51.166;4.466;2022-12-26T04:07:27;9.88;;;2.88;;
25972;SDS011;13765;51.166;4.466;2022-12-26T04:10:16;13.75;;;4.78;;
25972;SDS011;13765;51.166;4.466;2022-12-26T04:13:18;11.23;;;3.88;;
25972;SDS011;13765;51.166;4.466;2022-12-26T04:16:17;9.25;;;3.42;;
25972;SDS011;13765;51.166;4.466;2022-12-26T04:25:38;9.87;;;3.43;;
25972;SDS011;13765;51.166;4.466;2022-12-26T04:27:58;7.45;;;2.72;;
25972;SDS011;13765;51.166;4.466;2022-12-26T04:30:44;8.68;;;3.28;;
25972;SDS011;13765;51.166;4.466;2022-12-26T04:33:38;6.05;;;2.78;;
25972;SDS011;13765;51.166;4.466;2022-12-26T04:36:36;11.05;;;3.08;;
25972;SDS011;13765;51.166;4.466;2022-12-26T04:39:28;8.98;;;3.08;;
25972;SDS011;13765;51.166;4.466;2022-12-26T04:42:14;11.60;;;2.80;;
25972;SDS011;13765;51.166;4.466;2022-12-26T04:45:01;7.72;;;2.85;;
25972;SDS011;13765;51.166;4.466;2022-12-26T04:47:29;7.57;;;2.90;;
25972;SDS011;13765;51.166;4.466;2022-12-26T04:49:56;5.28;;;2.25;;
25972;SDS011;13765;51.166;4.466;2022-12-26T04:52:40;3.22;;;1.58;;
25972;SDS011;13765;51.166;4.466;2022-12-26T04:55:26;6.43;;;1.90;;
25972;SDS011;13765;51.166;4.466;2022-12-26T04:57:54;4.75;;;1.63;;
25972;SDS011;13765;51.166;4.466;2022-12-26T05:00:21;6.93;;;2.00;;
25972;SDS011;13765;51.166;4.466;2022-12-26T05:02:54;6.05;;;1.83;;
25972;SDS011;13765;51.166;4.466;2022-12-26T05:05:39;5.45;;;1.85;;
25972;SDS011;13765;51.166;4.466;2022-12-26T05:08:39;5.10;;;1.98;;
25972;SDS011;13765;51.166;4.466;2022-12-26T05:11:25;4.28;;;2.00;;
25972;SDS011;13765;51.166;4.466;2022-12-26T05:13:53;8.27;;;2.90;;
25972;SDS011;13765;51.166;4.466;2022-12-26T05:16:24;6.40;;;2.22;;
25972;SDS011;13765;51.166;4.466;2022-12-26T05:19:13;4.53;;;2.10;;
25972;SDS011;13765;51.166;4.466;2022-12-26T05:21:59;4.10;;;1.85;;
25972;SDS011;13765;51.166;4.466;2022-12-26T05:24:44;7.03;;;2.22;;
25972;SDS011;13765;51.166;4.466;2022-12-26T05:27:32;4.10;;;2.00;;
25972;SDS011;13765;51.166;4.466;2022-12-26T05:30:20;3.97;;;1.83;;
25972;SDS011;13765;51.166;4.466;2022-12-26T05:32:47;8.90;;;2.50;;
25972;SDS011;13765;51.166;4.466;2022-12-26T05:35:34;8.18;;;3.22;;
25972;SDS011;13765;51.166;4.466;2022-12-26T05:38:00;6.60;;;2.25;;
25972;SDS011;13765;51.166;4.466;2022-12-26T05:40:27;5.80;;;2.15;;
25972;SDS011;13765;51.166;4.466;2022-12-26T05:42:53;7.68;;;2.42;;
25972;SDS011;13765;51.166;4.466;2022-12-26T05:45:21;6.57;;;2.67;;
25972;SDS011;13765;51.166;4.466;2022-12-26T05:47:48;10.30;;;2.70;;
25972;SDS011;13765;51.166;4.466;2022-12-26T05:50:14;16.05;;;3.10;;
25972;SDS011;13765;51.166;4.466;2022-12-26T05:52:40;5.13;;;2.00;;
25972;SDS011;13765;51.166;4.466;2022-12-26T05:55:06;4.38;;;2.25;;
25972;SDS011;13765;51.166;4.466;2022-12-26T05:57:32;5.68;;;2.10;;
25972;SDS011;13765;51.166;4.466;2022-12-26T05:59:58;6.18;;;2.33;;
25972;SDS011;13765;51.166;4.466;2022-12-26T06:02:24;11.43;;;2.85;;
25972;SDS011;13765;51.166;4.466;2022-12-26T06:04:50;4.50;;;2.08;;
25972;SDS011;13765;51.166;4.466;2022-12-26T06:07:15;6.78;;;2.80;;
25972;SDS011;13765;51.166;4.466;2022-12-26T06:09:44;3.17;;;1.65;;
25972;SDS011;13765;51.166;4.466;2022-12-26T06:12:10;5.18;;;1.95;;
25972;SDS011;13765;51.166;4.466;2022-12-26T06:14:36;3.92;;;1.92;;
25972;SDS011;13765;51.166;4.466;2022-12-26T06:17:02;3.65;;;1.70;;
25972;SDS011;13765;51.166;4.466;2022-12-26T06:19:28;5.60;;;1.98;;
25972;SDS011;13765;51.166;4.466;2022-12-26T06:21:56;3.45;;;1.65;;
25972;SDS011;13765;51.166;4.466;2022-12-26T06:24:22;3.00;;;1.75;;
25972;SDS011;13765;51.166;4.466;2022-12-26T06:26:52;2.00;;;1.63;;
25972;SDS011;13765;51.166;4.466;2022-12-26T06:29:18;4.28;;;1.83;;
25972;SDS011;13765;51.166;4.466;2022-12-26T06:31:44;6.28;;;2.03;;
25972;SDS011;13765;51.166;4.466;2022-12-26T06:34:10;4.38;;;2.03;;
25972;SDS011;13765;51.166;4.466;2022-12-26T06:36:36;3.20;;;1.88;;
25972;SDS011;13765;51.166;4.466;2022-12-26T06:39:02;4.90;;;1.98;;
25972;SDS011;13765;51.166;4.466;2022-12-26T06:41:28;10.50;;;2.17;;
25972;SDS011;13765;51.166;4.466;2022-12-26T06:43:57;9.05;;;1.98;;
25972;SDS011;13765;51.166;4.466;2022-12-26T06:46:24;4.28;;;1.52;;
25972;SDS011;13765;51.166;4.466;2022-12-26T06:48:51;5.97;;;1.90;;
25972;SDS011;13765;51.166;4.466;2022-12-26T06:51:19;6.28;;;2.10;;
25972;SDS011;13765;51.166;4.466;2022-12-26T06:53:47;4.88;;;1.40;;
25972;SDS011;13765;51.166;4.466;2022-12-26T06:56:16;6.03;;;2.85;;
25972;SDS011;13765;51.166;4.466;2022-12-26T06:58:53;3.40;;;1.75;;
25972;SDS011;13765;51.166;4.466;2022-12-26T07:01:23;6.75;;;2.28;;
25972;SDS011;13765;51.166;4.466;2022-12-26T07:03:51;5.45;;;1.90;;
25972;SDS011;13765;51.166;4.466;2022-12-26T07:06:26;4.65;;;2.25;;
25972;SDS011;13765;51.166;4.466;2022-12-26T07:08:59;4.28;;;2.08;;
25972;SDS011;13765;51.166;4.466;2022-12-26T07:11:30;4.65;;;1.60;;
25972;SDS011;13765;51.166;4.466;2022-12-26T07:13:57;5.45;;;1.95;;
25972;SDS011;13765;51.166;4.466;2022-12-26T07:16:23;2.67;;;1.60;;
25972;SDS011;13765;51.166;4.466;2022-12-26T07:18:53;6.80;;;1.95;;
25972;SDS011;13765;51.166;4.466;2022-12-26T07:21:20;6.43;;;2.20;;
25972;SDS011;13765;51.166;4.466;2022-12-26T07:23:47;10.57;;;2.13;;
25972;SDS011;13765;51.166;4.466;2022-12-26T07:26:12;9.45;;;2.65;;
25972;SDS011;13765;51.166;4.466;2022-12-26T07:28:38;5.85;;;2.17;;
25972;SDS011;13765;51.166;4.466;2022-12-26T07:31:04;5.45;;;1.98;;
25972;SDS011;13765;51.166;4.466;2022-12-26T07:33:30;7.18;;;1.65;;
25972;SDS011;13765;51.166;4.466;2022-12-26T07:35:59;6.40;;;2.15;;
25972;SDS011;13765;51.166;4.466;2022-12-26T07:38:25;2.38;;;1.58;;
25972;SDS011;13765;51.166;4.466;2022-12-26T07:40:57;12.00;;;2.08;;
25972;SDS011;13765;51.166;4.466;2022-12-26T07:43:23;1.63;;;1.30;;
25972;SDS011;13765;51.166;4.466;2022-12-26T07:45:50;3.97;;;1.50;;
25972;SDS011;13765;51.166;4.466;2022-12-26T07:48:16;2.58;;;1.52;;
25972;SDS011;13765;51.166;4.466;2022-12-26T07:50:42;2.33;;;1.15;;
25972;SDS011;13765;51.166;4.466;2022-12-26T07:53:11;3.45;;;1.20;;
25972;SDS011;13765;51.166;4.466;2022-12-26T07:55:38;1.63;;;1.23;;
25972;SDS011;13765;51.166;4.466;2022-12-26T07:58:05;5.25;;;1.95;;
25972;SDS011;13765;51.166;4.466;2022-12-26T08:00:31;8.02;;;1.75;;
25972;SDS011;13765;51.166;4.466;2022-12-26T08:03:00;7.45;;;2.08;;
25972;SDS011;13765;51.166;4.466;2022-12-26T08:05:26;4.38;;;1.40;;
25972;SDS011;13765;51.166;4.466;2022-12-26T08:07:52;1.52;;;1.20;;
25972;SDS011;13765;51.166;4.466;2022-12-26T08:10:20;5.68;;;1.45;;
25972;SDS011;13765;51.166;4.466;2022-12-26T08:12:49;2.05;;;1.08;;
25972;SDS011;13765;51.166;4.466;2022-12-26T08:15:15;7.50;;;1.00;;
25972;SDS011;13765;51.166;4.466;2022-12-26T08:17:43;3.05;;;1.67;;
25972;SDS011;13765;51.166;4.466;2022-12-26T08:20:09;7.97;;;1.85;;
25972;SDS011;13765;51.166;4.466;2022-12-26T08:22:36;1.95;;;0.93;;
25972;SDS011;13765;51.166;4.466;2022-12-26T08:25:05;5.43;;;1.67;;
25972;SDS011;13765;51.166;4.466;2022-12-26T08:27:31;4.15;;;1.40;;
25972;SDS011;13765;51.166;4.466;2022-12-26T08:29:58;4.00;;;1.50;;
25972;SDS011;13765;51.166;4.466;2022-12-26T08:32:26;2.38;;;1.98;;
25972;SDS011;13765;51.166;4.466;2022-12-26T08:34:55;4.45;;;1.30;;
25972;SDS011;13765;51.166;4.466;2022-12-26T08:37:23;4.22;;;1.70;;
25972;SDS011;13765;51.166;4.466;2022-12-26T08:39:51;5.25;;;1.45;;
25972;SDS011;13765;51.166;4.466;2022-12-26T08:42:18;1.33;;;1.00;;
25972;SDS011;13765;51.166;4.466;2022-12-26T08:44:44;2.70;;;1.38;;
25972;SDS011;13765;51.166;4.466;2022-12-26T08:47:11;2.47;;;1.13;;
25972;SDS011;13765;51.166;4.466;2022-12-26T08:49:39;2.05;;;1.10;;
25972;SDS011;13765;51.166;4.466;2022-12-26T08:52:06;5.45;;;1.83;;
25972;SDS011;13765;51.166;4.466;2022-12-26T08:54:34;5.78;;;1.55;;
25972;SDS011;13765;51.166;4.466;2022-12-26T08:57:00;1.95;;;1.13;;
25972;SDS011;13765;51.166;4.466;2022-12-26T08:59:26;3.65;;;1.33;;
25972;SDS011;13765;51.166;4.466;2022-12-26T09:01:52;4.32;;;1.27;;
25972;SDS011;13765;51.166;4.466;2022-12-26T09:04:18;3.40;;;1.63;;
25972;SDS011;13765;51.166;4.466;2022-12-26T09:06:47;4.00;;;1.15;;
25972;SDS011;13765;51.166;4.466;2022-12-26T09:09:13;4.90;;;0.95;;
25972;SDS011;13765;51.166;4.466;2022-12-26T09:11:42;5.85;;;2.30;;
25972;SDS011;13765;51.166;4.466;2022-12-26T09:14:08;10.95;;;1.25;;
25972;SDS011;13765;51.166;4.466;2022-12-26T09:16:38;4.03;;;0.95;;
25972;SDS011;13765;51.166;4.466;2022-12-26T09:19:13;7.50;;;1.30;;
25972;SDS011;13765;51.166;4.466;2022-12-26T09:21:43;4.15;;;1.10;;
25972;SDS011;13765;51.166;4.466;2022-12-26T09:24:10;2.63;;;1.13;;
25972;SDS011;13765;51.166;4.466;2022-12-26T09:26:38;1.88;;;0.73;;
25972;SDS011;13765;51.166;4.466;2022-12-26T09:29:04;4.60;;;0.98;;
25972;SDS011;13765;51.166;4.466;2022-12-26T09:31:33;2.25;;;0.98;;
25972;SDS011;13765;51.166;4.466;2022-12-26T09:34:03;3.65;;;1.20;;
25972;SDS011;13765;51.166;4.466;2022-12-26T09:36:31;2.75;;;1.45;;
25972;SDS011;13765;51.166;4.466;2022-12-26T09:38:59;0.82;;;0.82;;
25972;SDS011;13765;51.166;4.466;2022-12-26T09:49:15;2.92;;;1.13;;
25972;SDS011;13765;51.166;4.466;2022-12-26T09:51:48;3.08;;;1.05;;
25972;SDS011;13765;51.166;4.466;2022-12-26T09:56:59;1.45;;;0.88;;
25972;SDS011;13765;51.166;4.466;2022-12-26T09:59:28;7.05;;;1.13;;
25972;SDS011;13765;51.166;4.466;2022-12-26T10:01:58;4.38;;;1.60;;
25972;SDS011;13765;51.166;4.466;2022-12-26T10:04:25;1.40;;;1.10;;
25972;SDS011;13765;51.166;4.466;2022-12-26T10:18:06;6.70;;;1.15;;
25972;SDS011;13765;51.166;4.466;2022-12-26T10:23:38;10.25;;;1.17;;
25972;SDS011;13765;51.166;4.466;2022-12-26T10:28:46;3.38;;;1.08;;
25972;SDS011;13765;51.166;4.466;2022-12-26T10:31:31;7.32;;;1.38;;
25972;SDS011;13765;51.166;4.466;2022-12-26T10:36:38;11.27;;;1.30;;
25972;SDS011;13765;51.166;4.466;2022-12-26T10:39:29;1.70;;;0.85;;
25972;SDS011;13765;51.166;4.466;2022-12-26T10:42:53;9.82;;;1.75;;
25972;SDS011;13765;51.166;4.466;2022-12-26T10:45:11;6.88;;;1.58;;
25972;SDS011;13765;51.166;4.466;2022-12-26T10:47:42;5.35;;;1.52;;
25972;SDS011;13765;51.166;4.466;2022-12-26T10:50:17;6.53;;;0.98;;
25972;SDS011;13765;51.166;4.466;2022-12-26T10:52:49;2.33;;;1.10;;
25972;SDS011;13765;51.166;4.466;2022-12-26T10:55:17;10.85;;;2.15;;
25972;SDS011;13765;51.166;4.466;2022-12-26T10:57:50;7.65;;;1.40;;
25972;SDS011;13765;51.166;4.466;2022-12-26T11:00:26;1.65;;;1.02;;
25972;SDS011;13765;51.166;4.466;2022-12-26T11:03:06;6.40;;;2.25;;
25972;SDS011;13765;51.166;4.466;2022-12-26T11:05:40;5.05;;;1.23;;
25972;SDS011;13765;51.166;4.466;2022-12-26T11:08:18;10.07;;;1.35;;
25972;SDS011;13765;51.166;4.466;2022-12-26T11:13:27;8.02;;;2.47;;
25972;SDS011;13765;51.166;4.466;2022-12-26T11:16:02;11.65;;;1.38;;
25972;SDS011;13765;51.166;4.466;2022-12-26T11:18:34;8.40;;;1.95;;
25972;SDS011;13765;51.166;4.466;2022-12-26T11:23:37;5.15;;;1.35;;
25972;SDS011;13765;51.166;4.466;2022-12-26T11:26:17;6.50;;;1.27;;
25972;SDS011;13765;51.166;4.466;2022-12-26T11:29:01;4.82;;;1.77;;
25972;SDS011;13765;51.166;4.466;2022-12-26T11:31:37;10.52;;;2.22;;
25972;SDS011;13765;51.166;4.466;2022-12-26T11:34:09;3.00;;;0.90;;
25972;SDS011;13765;51.166;4.466;2022-12-26T11:36:44;3.60;;;1.23;;
25972;SDS011;13765;51.166;4.466;2022-12-26T11:39:28;11.40;;;1.35;;
25972;SDS011;13765;51.166;4.466;2022-12-26T11:41:59;4.25;;;1.70;;
25972;SDS011;13765;51.166;4.466;2022-12-26T11:44:39;5.78;;;0.90;;
25972;SDS011;13765;51.166;4.466;2022-12-26T11:49:37;2.33;;;1.10;;
25972;SDS011;13765;51.166;4.466;2022-12-26T12:00:34;6.95;;;1.23;;
25972;SDS011;13765;51.166;4.466;2022-12-26T12:03:17;8.20;;;2.00;;
25972;SDS011;13765;51.166;4.466;2022-12-26T12:16:57;9.88;;;1.67;;
25972;SDS011;13765;51.166;4.466;2022-12-26T12:45:19;12.20;;;1.00;;
25972;SDS011;13765;51.166;4.466;2022-12-26T13:01:32;5.07;;;0.65;;
25972;SDS011;13765;51.166;4.466;2022-12-26T13:04:11;6.40;;;1.42;;
25972;SDS011;13765;51.166;4.466;2022-12-26T13:06:52;7.00;;;1.23;;
25972;SDS011;13765;51.166;4.466;2022-12-26T13:09:34;4.82;;;1.35;;
25972;SDS011;13765;51.166;4.466;2022-12-26T13:12:06;3.05;;;1.02;;
25972;SDS011;13765;51.166;4.466;2022-12-26T13:14:37;4.15;;;1.15;;
25972;SDS011;13765;51.166;4.466;2022-12-26T13:17:09;2.17;;;1.13;;
25972;SDS011;13765;51.166;4.466;2022-12-26T13:22:18;2.25;;;0.90;;
25972;SDS011;13765;51.166;4.466;2022-12-26T13:24:51;6.43;;;1.20;;
25972;SDS011;13765;51.166;4.466;2022-12-26T13:27:24;12.23;;;2.53;;
25972;SDS011;13765;51.166;4.466;2022-12-26T13:29:55;7.85;;;1.45;;
25972;SDS011;13765;51.166;4.466;2022-12-26T13:32:25;8.10;;;2.47;;
25972;SDS011;13765;51.166;4.466;2022-12-26T13:34:56;2.42;;;0.95;;
25972;SDS011;13765;51.166;4.466;2022-12-26T13:40:15;12.27;;;1.95;;
25972;SDS011;13765;51.166;4.466;2022-12-26T13:53:43;3.55;;;1.05;;
25972;SDS011;13765;51.166;4.466;2022-12-26T13:58:56;2.08;;;0.93;;
25972;SDS011;13765;51.166;4.466;2022-12-26T14:10:00;2.58;;;1.13;;
25972;SDS011;13765;51.166;4.466;2022-12-26T14:20:53;7.00;;;1.13;;
25972;SDS011;13765;51.166;4.466;2022-12-26T14:26:55;2.72;;;0.77;;
25972;SDS011;13765;51.166;4.466;2022-12-26T14:37:46;7.00;;;1.10;;
25972;SDS011;13765;51.166;4.466;2022-12-26T14:40:35;3.22;;;1.50;;
25972;SDS011;13765;51.166;4.466;2022-12-26T15:01:41;2.70;;;0.93;;
25972;SDS011;13765;51.166;4.466;2022-12-26T15:09:23;0.98;;;0.63;;
25972;SDS011;13765;51.166;4.466;2022-12-26T15:12:18;4.63;;;1.98;;
25972;SDS011;13765;51.166;4.466;2022-12-26T15:15:03;2.08;;;1.08;;
25972;SDS011;13765;51.166;4.466;2022-12-26T15:28:30;5.35;;;1.92;;
25972;SDS011;13765;51.166;4.466;2022-12-26T15:36:58;2.42;;;1.38;;
25972;SDS011;13765;51.166;4.466;2022-12-26T15:39:35;0.82;;;0.82;;
25972;SDS011;13765;51.166;4.466;2022-12-26T15:42:29;3.67;;;1.40;;
25972;SDS011;13765;51.166;4.466;2022-12-26T15:48:05;3.00;;;1.25;;
25972;SDS011;13765;51.166;4.466;2022-12-26T15:50:57;2.80;;;1.48;;
25972;SDS011;13765;51.166;4.466;2022-12-26T15:53:34;5.50;;;1.73;;
25972;SDS011;13765;51.166;4.466;2022-12-26T16:04:53;2.15;;;0.95;;
25972;SDS011;13765;51.166;4.466;2022-12-26T16:07:41;6.88;;;1.38;;
25972;SDS011;13765;51.166;4.466;2022-12-26T16:13:03;13.50;;;4.20;;
25972;SDS011;13765;51.166;4.466;2022-12-26T16:15:31;17.50;;;2.75;;
25972;SDS011;13765;51.166;4.466;2022-12-26T16:18:11;11.88;;;3.60;;
25972;SDS011;13765;51.166;4.466;2022-12-26T16:20:38;9.10;;;2.85;;
25972;SDS011;13765;51.166;4.466;2022-12-26T16:23:24;5.38;;;2.50;;
25972;SDS011;13765;51.166;4.466;2022-12-26T16:25:53;9.40;;;3.08;;
25972;SDS011;13765;51.166;4.466;2022-12-26T16:28:30;9.00;;;2.70;;
25972;SDS011;13765;51.166;4.466;2022-12-26T16:31:07;2.97;;;1.67;;
25972;SDS011;13765;51.166;4.466;2022-12-26T16:33:38;12.57;;;3.63;;
25972;SDS011;13765;51.166;4.466;2022-12-26T16:36:06;13.05;;;5.30;;
25972;SDS011;13765;51.166;4.466;2022-12-26T16:38:35;10.70;;;2.83;;
25972;SDS011;13765;51.166;4.466;2022-12-26T16:41:05;10.20;;;2.90;;
25972;SDS011;13765;51.166;4.466;2022-12-26T16:43:46;5.95;;;1.90;;
25972;SDS011;13765;51.166;4.466;2022-12-26T16:46:16;6.75;;;2.53;;
25972;SDS011;13765;51.166;4.466;2022-12-26T16:48:45;5.43;;;2.42;;
25972;SDS011;13765;51.166;4.466;2022-12-26T16:54:24;15.05;;;4.68;;
25972;SDS011;13765;51.166;4.466;2022-12-26T17:00:02;16.58;;;4.80;;
25972;SDS011;13765;51.166;4.466;2022-12-26T17:02:25;10.40;;;4.25;;
25972;SDS011;13765;51.166;4.466;2022-12-26T17:04:59;22.27;;;5.70;;
25972;SDS011;13765;51.166;4.466;2022-12-26T17:07:27;8.30;;;3.47;;
25972;SDS011;13765;51.166;4.466;2022-12-26T17:09:57;7.43;;;3.38;;
25972;SDS011;13765;51.166;4.466;2022-12-26T17:12:27;8.45;;;4.32;;
25972;SDS011;13765;51.166;4.466;2022-12-26T17:15:03;12.30;;;4.63;;
25972;SDS011;13765;51.166;4.466;2022-12-26T17:17:32;11.27;;;3.65;;
25972;SDS011;13765;51.166;4.466;2022-12-26T17:22:52;10.85;;;4.07;;
25972;SDS011;13765;51.166;4.466;2022-12-26T17:25:21;6.55;;;2.67;;
25972;SDS011;13765;51.166;4.466;2022-12-26T17:30:37;12.80;;;4.05;;
25972;SDS011;13765;51.166;4.466;2022-12-26T17:35:38;21.63;;;7.10;;
25972;SDS011;13765;51.166;4.466;2022-12-26T17:38:07;20.60;;;5.20;;
25972;SDS011;13765;51.166;4.466;2022-12-26T17:45:38;16.10;;;4.35;;
25972;SDS011;13765;51.166;4.466;2022-12-26T17:48:06;10.00;;;3.63;;
25972;SDS011;13765;51.166;4.466;2022-12-26T17:50:35;8.90;;;3.30;;
25972;SDS011;13765;51.166;4.466;2022-12-26T17:53:05;8.05;;;2.70;;
25972;SDS011;13765;51.166;4.466;2022-12-26T17:55:32;12.75;;;3.58;;
25972;SDS011;13765;51.166;4.466;2022-12-26T17:57:58;7.80;;;2.85;;
25972;SDS011;13765;51.166;4.466;2022-12-26T18:00:25;13.15;;;3.55;;
25972;SDS011;13765;51.166;4.466;2022-12-26T18:02:52;11.70;;;3.03;;
25972;SDS011;13765;51.166;4.466;2022-12-26T18:05:21;8.50;;;3.22;;
25972;SDS011;13765;51.166;4.466;2022-12-26T18:07:49;7.90;;;3.13;;
25972;SDS011;13765;51.166;4.466;2022-12-26T18:10:20;8.93;;;3.35;;
25972;SDS011;13765;51.166;4.466;2022-12-26T18:12:48;12.02;;;3.10;;
25972;SDS011;13765;51.166;4.466;2022-12-26T18:15:15;9.70;;;3.40;;
25972;SDS011;13765;51.166;4.466;2022-12-26T18:17:42;9.65;;;3.38;;
25972;SDS011;13765;51.166;4.466;2022-12-26T18:20:30;16.33;;;3.97;;
25972;SDS011;13765;51.166;4.466;2022-12-26T18:22:58;17.10;;;4.57;;
25972;SDS011;13765;51.166;4.466;2022-12-26T18:25:24;12.35;;;3.75;;
25972;SDS011;13765;51.166;4.466;2022-12-26T18:27:51;11.25;;;3.55;;
25972;SDS011;13765;51.166;4.466;2022-12-26T18:30:22;18.70;;;5.28;;
25972;SDS011;13765;51.166;4.466;2022-12-26T18:32:50;14.07;;;5.30;;
25972;SDS011;13765;51.166;4.466;2022-12-26T18:35:20;11.95;;;4.15;;
25972;SDS011;13765;51.166;4.466;2022-12-26T18:37:50;7.93;;;3.65;;
25972;SDS011;13765;51.166;4.466;2022-12-26T18:40:37;9.88;;;3.83;;
25972;SDS011;13765;51.166;4.466;2022-12-26T18:43:07;18.65;;;4.82;;
25972;SDS011;13765;51.166;4.466;2022-12-26T18:45:33;14.77;;;4.68;;
25972;SDS011;13765;51.166;4.466;2022-12-26T18:48:02;16.92;;;5.22;;
25972;SDS011;13765;51.166;4.466;2022-12-26T18:50:29;14.38;;;4.53;;
25972;SDS011;13765;51.166;4.466;2022-12-26T18:52:58;11.48;;;4.00;;
25972;SDS011;13765;51.166;4.466;2022-12-26T18:55:24;12.05;;;3.28;;
25972;SDS011;13765;51.166;4.466;2022-12-26T18:57:53;8.02;;;3.35;;
25972;SDS011;13765;51.166;4.466;2022-12-26T19:00:22;5.93;;;2.75;;
25972;SDS011;13765;51.166;4.466;2022-12-26T19:02:48;15.70;;;4.68;;
25972;SDS011;13765;51.166;4.466;2022-12-26T19:05:17;9.23;;;3.67;;
25972;SDS011;13765;51.166;4.466;2022-12-26T19:07:57;9.48;;;3.53;;
25972;SDS011;13765;51.166;4.466;2022-12-26T19:10:25;11.82;;;3.63;;
25972;SDS011;13765;51.166;4.466;2022-12-26T19:12:56;10.40;;;3.90;;
25972;SDS011;13765;51.166;4.466;2022-12-26T19:15:25;11.88;;;5.25;;
25972;SDS011;13765;51.166;4.466;2022-12-26T19:17:51;18.08;;;6.80;;
25972;SDS011;13765;51.166;4.466;2022-12-26T19:20:21;18.55;;;5.85;;
25972;SDS011;13765;51.166;4.466;2022-12-26T19:22:48;16.45;;;4.47;;
25972;SDS011;13765;51.166;4.466;2022-12-26T19:25:20;19.35;;;5.93;;
25972;SDS011;13765;51.166;4.466;2022-12-26T19:27:48;10.07;;;3.78;;
25972;SDS011;13765;51.166;4.466;2022-12-26T19:30:15;17.02;;;4.95;;
25972;SDS011;13765;51.166;4.466;2022-12-26T19:32:42;23.77;;;4.72;;
25972;SDS011;13765;51.166;4.466;2022-12-26T19:35:09;11.32;;;4.22;;
25972;SDS011;13765;51.166;4.466;2022-12-26T19:37:36;12.50;;;4.63;;
25972;SDS011;13765;51.166;4.466;2022-12-26T19:40:01;13.73;;;4.22;;
25972;SDS011;13765;51.166;4.466;2022-12-26T19:42:28;15.02;;;4.50;;
25972;SDS011;13765;51.166;4.466;2022-12-26T19:44:54;22.30;;;5.28;;
25972;SDS011;13765;51.166;4.466;2022-12-26T19:47:25;16.77;;;6.35;;